KHVR/HVR METAR and TAF weather

Enter ICAO airport designator
Station Type Date Time Source
KHVR METAR 2022/06/28 14:53 UTC NOAA

KHVR 281453Z AUTO 09017G24KT 10SM CLR 19/08 A3008 RMK AO2 SLP172 T01940083 50001 $


Station Type Date Time Source
KHVR Decoded METAR 2022/06/28 14:53 UTC NOAA

HAVRE CITY-COUNTY AIRPORT, MT, United States (KHVR) 48-33N 109-46W 787M
Jun 28, 2022 - 10:53 AM EDT / 2022.06.28 1453 UTC
Wind: from the E (090 degrees) at 20 MPH (17 KT) gusting to 28 MPH (24 KT):0
Visibility: 10 mile(s):0
Sky conditions: clear
Temperature: 66.9 F (19.4 C)
Dew Point: 46.9 F (8.3 C)
Relative Humidity: 48%
Pressure (altimeter): 30.08 in. Hg (1018 hPa)
Pressure tendency: 0.00 inches (0.1 hPa) higher than three hours ago
ob: KHVR 281453Z AUTO 09017G24KT 10SM CLR 19/08 A3008 RMK AO2 SLP172 T01940083 50001
cycle: 15

Station Type Date Time Source
KHVR TAF 2022/06/28 12:22 UTC NOAA

TAF KHVR 281120Z 2812/2912 VRB05KT P6SM SCT150
FM282100 11013G21KT P6SM SCT150
FM282300 14012G21KT P6SM VCTS SCT090CB PROB30 2823/2903 VRB25G40KT 4SM TSRA BKN090CB
FM290400 22010KT P6SM SCT100

Example: see airport list